createdAt,value
2023-05-05T00:01:09.941Z,52.87
2023-05-05T00:03:43.880Z,53.09
2023-05-05T00:06:14.273Z,53.93
2023-05-05T00:08:45.918Z,54.10
2023-05-05T00:11:15.585Z,53.92
2023-05-05T00:13:49.856Z,54.55
2023-05-05T00:16:19.668Z,54.82
2023-05-05T00:18:48.924Z,54.67
2023-05-05T00:21:18.977Z,54.10
2023-05-05T00:23:56.254Z,54.60
2023-05-05T00:26:25.551Z,54.71
2023-05-05T00:28:55.416Z,54.60
2023-05-05T00:31:37.195Z,54.48
2023-05-05T00:34:06.581Z,54.13
2023-05-05T00:36:36.075Z,54.02
2023-05-05T00:39:12.930Z,54.18
2023-05-05T00:41:42.903Z,54.53
2023-05-05T00:44:17.213Z,55.13
2023-05-05T00:46:46.885Z,54.79
2023-05-05T00:49:16.080Z,54.91
2023-05-05T00:51:45.741Z,55.91
2023-05-05T00:54:17.388Z,56.18
2023-05-05T00:56:47.829Z,56.74
2023-05-05T00:59:17.195Z,56.31
2023-05-05T01:01:52.905Z,56.17
2023-05-05T01:04:22.200Z,56.42
2023-05-05T01:07:01.306Z,56.43
2023-05-05T01:09:40.850Z,55.55
2023-05-05T01:12:23.078Z,55.81
2023-05-05T01:15:07.157Z,55.23
2023-05-05T01:17:54.390Z,55.82
2023-05-05T01:20:31.028Z,56.48
2023-05-05T01:23:08.289Z,57.03
2023-05-05T01:26:06.330Z,56.97
2023-05-05T01:29:07.852Z,57.88
2023-05-05T01:31:59.648Z,57.45
2023-05-05T01:34:37.723Z,56.93
2023-05-05T01:37:13.496Z,57.64
2023-05-05T01:39:45.652Z,57.72
2023-05-05T01:42:15.769Z,57.30
2023-05-05T01:44:46.667Z,57.79
2023-05-05T01:47:20.863Z,59.04
2023-05-05T01:49:51.806Z,58.61
2023-05-05T01:52:22.383Z,58.31
2023-05-05T01:54:59.433Z,58.92
2023-05-05T01:57:33.122Z,59.72
2023-05-05T02:00:06.318Z,59.08
2023-05-05T02:02:48.701Z,58.97
2023-05-05T02:05:26.858Z,58.53
2023-05-05T02:07:59.735Z,59.30
2023-05-05T02:10:31.063Z,59.07
2023-05-05T02:13:06.455Z,59.29
2023-05-05T02:15:37.173Z,58.66
2023-05-05T02:18:10.407Z,58.46
2023-05-05T02:20:47.513Z,58.13
2023-05-05T02:23:16.610Z,57.79
2023-05-05T02:26:07.147Z,58.19
2023-05-05T02:28:42.612Z,57.92
2023-05-05T02:31:14.644Z,57.54
2023-05-05T02:33:47.592Z,58.22
2023-05-05T02:36:22.126Z,57.92
2023-05-05T02:39:13.136Z,58.16
2023-05-05T02:41:44.828Z,57.72
2023-05-05T02:44:26.762Z,57.47
2023-05-05T02:46:57.709Z,57.24
2023-05-05T02:49:35.917Z,56.92
2023-05-05T02:54:42.609Z,56.33
2023-05-05T02:57:29.541Z,56.48
2023-05-05T03:00:07.951Z,56.19
2023-05-05T03:02:46.001Z,55.46
2023-05-05T03:05:25.072Z,55.51
2023-05-05T03:08:09.381Z,55.90
2023-05-05T03:10:48.795Z,55.76
2023-05-05T03:13:25.901Z,55.89
2023-05-05T03:18:40.076Z,56.25
2023-05-05T03:21:11.725Z,55.65
2023-05-05T03:23:48.718Z,55.84
2023-05-05T03:26:22.349Z,55.53
2023-05-05T03:28:51.580Z,55.07
2023-05-05T03:31:29.292Z,54.73
2023-05-05T03:34:06.796Z,55.07
2023-05-05T03:36:44.209Z,54.86
2023-05-05T03:39:15.703Z,55.02
2023-05-05T03:42:00.376Z,55.15
2023-05-05T03:44:33.450Z,54.43
2023-05-05T03:47:08.174Z,54.27
2023-05-05T03:49:39.772Z,53.42
2023-05-05T03:52:13.824Z,53.69
2023-05-05T03:54:50.235Z,53.31
2023-05-05T03:57:20.537Z,53.93
2023-05-05T03:59:49.803Z,54.06
2023-05-05T04:02:19.131Z,54.26
2023-05-05T04:04:49.475Z,54.61
2023-05-05T04:07:26.784Z,54.86
2023-05-05T04:10:09.839Z,55.29
2023-05-05T04:12:39.614Z,55.00
2023-05-05T04:15:10.209Z,55.30
2023-05-05T04:17:45.069Z,55.17
2023-05-05T04:20:14.671Z,55.47
2023-05-05T04:22:45.949Z,56.06
2023-05-05T04:25:15.537Z,55.42
2023-05-05T04:27:45.976Z,55.30
2023-05-05T04:30:16.852Z,56.05
2023-05-05T04:32:46.616Z,56.33
2023-05-05T04:35:16.259Z,56.42
2023-05-05T04:37:48.425Z,56.71
2023-05-05T04:40:28.871Z,55.68
2023-05-05T04:43:03.668Z,56.35
2023-05-05T04:45:32.819Z,56.73
2023-05-05T04:48:09.840Z,57.26
2023-05-05T04:53:20.994Z,56.26
2023-05-05T04:55:50.360Z,56.78
2023-05-05T04:58:20.300Z,57.54
2023-05-05T05:00:54.656Z,58.82
2023-05-05T05:03:24.069Z,58.72
2023-05-05T05:05:54.156Z,59.29
2023-05-05T05:11:06.108Z,59.42
2023-05-05T05:13:35.308Z,59.68
2023-05-05T05:16:04.901Z,60.01
2023-05-05T05:18:34.091Z,60.25
2023-05-05T05:21:03.726Z,59.91
2023-05-05T05:23:35.594Z,60.56
2023-05-05T05:26:05.048Z,60.37
2023-05-05T05:28:39.766Z,61.12
2023-05-05T05:31:09.294Z,61.81
2023-05-05T05:33:39.055Z,61.43
2023-05-05T05:38:47.675Z,60.59
2023-05-05T05:41:27.515Z,60.76
2023-05-05T05:43:57.373Z,60.58
2023-05-05T05:46:26.556Z,60.86
2023-05-05T05:49:00.891Z,60.67
2023-05-05T05:51:31.229Z,60.05
2023-05-05T05:54:02.558Z,59.99
2023-05-05T05:56:32.973Z,60.02
2023-05-05T05:59:04.289Z,60.05
2023-05-05T06:01:40.099Z,59.90
2023-05-05T06:04:09.489Z,59.66
2023-05-05T06:06:40.809Z,59.47
2023-05-05T06:09:12.192Z,58.58
2023-05-05T06:11:54.461Z,57.68
2023-05-05T06:14:23.733Z,57.03
2023-05-05T06:16:53.391Z,55.60
2023-05-05T06:19:29.993Z,55.97
2023-05-05T06:21:59.418Z,55.33
2023-05-05T06:24:32.118Z,56.29
2023-05-05T06:27:02.460Z,56.39
2023-05-05T06:29:31.601Z,55.91
2023-05-05T06:32:00.992Z,55.81
2023-05-05T06:34:30.419Z,55.13
2023-05-05T06:37:04.798Z,54.56
2023-05-05T06:39:36.095Z,55.76
2023-05-05T06:44:41.213Z,56.10
2023-05-05T06:47:10.551Z,56.17
2023-05-05T06:49:44.691Z,56.10
2023-05-05T06:52:14.003Z,55.70
2023-05-05T06:54:45.801Z,55.91
2023-05-05T06:57:14.696Z,55.52
2023-05-05T06:59:43.922Z,55.79
2023-05-05T07:02:13.223Z,55.20
2023-05-05T07:04:42.436Z,54.09
2023-05-05T07:07:17.982Z,53.71
2023-05-05T07:09:49.450Z,53.33
2023-05-05T07:12:18.787Z,53.01
2023-05-05T07:14:48.888Z,53.11
2023-05-05T07:17:18.323Z,53.74
2023-05-05T07:19:48.408Z,54.35
2023-05-05T07:22:17.933Z,53.98
2023-05-05T07:24:50.471Z,55.09
2023-05-05T07:27:21.144Z,55.12
2023-05-05T07:29:50.374Z,55.81
2023-05-05T07:32:19.746Z,56.54
2023-05-05T07:34:49.171Z,56.04
2023-05-05T07:37:23.734Z,55.97
2023-05-05T07:39:54.931Z,55.43
2023-05-05T07:42:36.123Z,54.60
2023-05-05T07:45:06.910Z,54.82
2023-05-05T07:47:36.217Z,54.35
2023-05-05T07:50:10.972Z,54.04
2023-05-05T07:55:20.920Z,53.93
2023-05-05T07:57:50.503Z,53.68
2023-05-05T08:00:21.447Z,53.18
2023-05-05T08:02:51.153Z,53.47
2023-05-05T08:05:35.285Z,52.99
2023-05-05T08:08:05.850Z,52.77
2023-05-05T08:10:37.041Z,52.08
2023-05-05T08:13:06.337Z,52.43
2023-05-05T08:15:35.657Z,52.81
2023-05-05T08:18:04.937Z,52.44
2023-05-05T08:20:34.206Z,52.83
2023-05-05T08:23:03.553Z,51.24
2023-05-05T08:25:32.804Z,51.37
2023-05-05T08:28:04.425Z,52.22
2023-05-05T08:30:59.387Z,52.83
2023-05-05T08:33:28.794Z,52.36
2023-05-05T08:35:58.066Z,52.78
2023-05-05T08:38:32.926Z,53.07
2023-05-05T08:41:02.255Z,52.60
2023-05-05T08:43:35.620Z,52.61
2023-05-05T08:46:06.228Z,53.46
2023-05-05T08:48:37.386Z,56.25
2023-05-05T08:51:08.585Z,57.24
2023-05-05T08:53:48.644Z,59.92
2023-05-05T08:56:19.490Z,60.25
2023-05-05T08:58:51.569Z,59.80
2023-05-05T09:01:20.976Z,60.23
2023-05-05T09:03:51.100Z,60.92
2023-05-05T09:06:32.047Z,62.39
2023-05-05T09:09:02.584Z,60.15
2023-05-05T09:11:31.923Z,59.45
2023-05-05T09:14:03.659Z,57.50
2023-05-05T09:16:46.209Z,55.40
2023-05-05T09:19:15.488Z,53.48
2023-05-05T09:21:50.474Z,51.78
2023-05-05T09:24:20.073Z,53.48
2023-05-05T09:26:56.900Z,54.09
2023-05-05T09:29:29.530Z,54.85
2023-05-05T09:32:08.085Z,54.83
2023-05-05T09:35:00.506Z,56.12
2023-05-05T09:37:30.904Z,56.53
2023-05-05T09:40:03.335Z,56.81
2023-05-05T09:42:33.707Z,57.98
2023-05-05T09:45:05.160Z,57.98
2023-05-05T09:47:39.533Z,58.70
2023-05-05T09:50:10.993Z,59.05
2023-05-05T09:52:40.581Z,58.56
2023-05-05T09:55:19.269Z,58.20
2023-05-05T09:57:49.788Z,57.37
2023-05-05T10:00:21.908Z,56.74
2023-05-05T10:02:51.486Z,55.78
2023-05-05T10:05:20.900Z,54.21
2023-05-05T10:07:50.528Z,54.61
2023-05-05T10:10:20.259Z,53.64
2023-05-05T10:12:54.209Z,52.65
2023-05-05T10:15:25.819Z,53.18
2023-05-05T10:18:06.976Z,52.23
2023-05-05T10:20:41.115Z,51.74
2023-05-05T10:23:25.956Z,50.91
2023-05-05T10:26:02.676Z,49.79
2023-05-05T10:28:35.421Z,48.59
2023-05-05T10:31:25.133Z,48.00
2023-05-05T10:34:07.562Z,47.23
2023-05-05T10:36:41.258Z,46.68
2023-05-05T10:39:11.647Z,46.35
2023-05-05T10:41:41.223Z,46.26
2023-05-05T10:44:18.898Z,45.77
2023-05-05T10:46:51.256Z,46.45
2023-05-05T10:49:27.615Z,47.25
2023-05-05T10:52:02.362Z,47.33
2023-05-05T10:54:43.849Z,47.92
2023-05-05T10:57:16.706Z,47.63
2023-05-05T10:59:47.203Z,48.08
2023-05-05T11:02:30.098Z,48.12
2023-05-05T11:05:14.813Z,47.20
2023-05-05T11:07:44.811Z,46.77
2023-05-05T11:10:16.177Z,46.37
2023-05-05T11:15:58.981Z,47.84
2023-05-05T11:18:36.332Z,47.99
2023-05-05T11:21:20.588Z,48.11
2023-05-05T11:23:52.610Z,48.53
2023-05-05T11:26:42.248Z,48.09
2023-05-05T11:29:17.036Z,48.82
2023-05-05T11:31:47.502Z,49.55
2023-05-05T11:34:31.589Z,49.59
2023-05-05T11:37:04.391Z,49.49
2023-05-05T11:39:42.209Z,50.04
2023-05-05T11:42:32.192Z,49.61
2023-05-05T11:45:02.052Z,49.27
2023-05-05T11:47:39.203Z,48.68
2023-05-05T11:53:03.462Z,49.24
2023-05-05T11:55:32.896Z,48.73
2023-05-05T11:58:02.353Z,49.03
2023-05-05T12:00:35.536Z,48.95
2023-05-05T12:03:07.728Z,48.57
2023-05-05T12:05:44.363Z,48.82
2023-05-05T12:08:14.710Z,49.01
2023-05-05T12:10:50.854Z,49.47
2023-05-05T12:13:21.383Z,49.04
2023-05-05T12:15:51.080Z,48.46
2023-05-05T12:18:20.956Z,47.93
2023-05-05T12:21:05.483Z,48.40
2023-05-05T12:23:40.251Z,48.03
2023-05-05T12:26:15.104Z,48.76
2023-05-05T12:28:48.062Z,49.19
2023-05-05T12:31:22.622Z,49.28
2023-05-05T12:33:53.078Z,49.46
2023-05-05T12:36:24.633Z,49.28
2023-05-05T12:38:54.386Z,48.48
2023-05-05T12:41:23.862Z,48.87
2023-05-05T12:51:55.594Z,47.21
2023-05-05T12:54:29.256Z,46.07
2023-05-05T12:57:03.381Z,45.40
2023-05-05T12:59:34.060Z,43.93
2023-05-05T13:02:09.786Z,42.87
2023-05-05T13:04:50.255Z,42.91
2023-05-05T13:07:23.281Z,43.04
2023-05-05T13:09:53.178Z,42.97
2023-05-05T13:12:23.316Z,42.84
2023-05-05T13:14:59.399Z,41.97
2023-05-05T13:17:28.778Z,42.04
2023-05-05T13:20:03.652Z,42.58
2023-05-05T13:22:40.223Z,42.90
2023-05-05T13:25:09.891Z,43.20
2023-05-05T13:27:39.923Z,44.32
2023-05-05T13:32:45.967Z,44.87
2023-05-05T13:35:16.583Z,45.10
2023-05-05T13:37:48.189Z,44.99
2023-05-05T13:40:17.508Z,44.36
2023-05-05T13:42:46.779Z,44.13
2023-05-05T13:45:17.127Z,44.51
2023-05-05T13:47:46.438Z,44.85
2023-05-05T13:50:16.065Z,44.73
2023-05-05T13:52:45.323Z,43.66
2023-05-05T13:55:17.377Z,42.14
2023-05-05T13:57:46.936Z,42.49
2023-05-05T14:00:17.864Z,42.63
2023-05-05T14:02:52.488Z,42.91
2023-05-05T14:05:22.015Z,42.06
2023-05-05T14:07:51.831Z,42.14
2023-05-05T14:13:09.893Z,42.18
2023-05-05T14:15:39.440Z,42.45
2023-05-05T14:18:09.353Z,41.62
2023-05-05T14:20:38.564Z,41.31
2023-05-05T14:23:07.904Z,41.81
2023-05-05T14:25:39.319Z,41.93
2023-05-05T14:28:14.024Z,42.17
2023-05-05T14:30:43.441Z,42.67
2023-05-05T14:35:52.995Z,42.81
2023-05-05T14:38:22.300Z,42.46
2023-05-05T14:40:53.691Z,42.13
2023-05-05T14:43:23.767Z,41.03
2023-05-05T14:45:54.694Z,40.45
2023-05-05T14:48:24.245Z,39.52
2023-05-05T14:50:53.977Z,39.43
2023-05-05T14:53:34.751Z,39.17
2023-05-05T14:56:12.527Z,39.31
2023-05-05T14:58:48.877Z,39.53
2023-05-05T15:01:20.244Z,39.27
2023-05-05T15:06:29.924Z,40.18
2023-05-05T15:08:59.247Z,40.32
2023-05-05T15:11:30.609Z,40.70
2023-05-05T15:14:00.067Z,40.92
2023-05-05T15:16:29.542Z,40.87
2023-05-05T15:19:04.003Z,40.85
2023-05-05T15:21:33.879Z,40.98
2023-05-05T15:24:04.282Z,41.47
2023-05-05T15:26:35.764Z,41.59
2023-05-05T15:29:05.197Z,41.33
2023-05-05T15:31:34.822Z,41.12
2023-05-05T15:34:04.326Z,41.01
2023-05-05T15:36:33.599Z,41.00
2023-05-05T15:39:03.069Z,41.78
2023-05-05T15:41:32.364Z,41.41
2023-05-05T15:44:04.661Z,42.26
2023-05-05T15:46:34.978Z,41.66
2023-05-05T15:49:04.736Z,41.94
2023-05-05T15:51:34.107Z,41.17
2023-05-05T15:54:03.464Z,40.65
2023-05-05T15:56:33.483Z,40.42
2023-05-05T15:59:09.328Z,39.50
2023-05-05T16:01:39.090Z,38.25
2023-05-05T16:04:08.448Z,37.22
2023-05-05T16:06:37.967Z,37.14
2023-05-05T16:09:07.467Z,36.90
2023-05-05T16:11:37.128Z,37.40
2023-05-05T16:14:13.528Z,36.44
2023-05-05T16:16:43.622Z,36.56
2023-05-05T16:19:14.397Z,36.08
2023-05-05T16:21:43.665Z,36.25
2023-05-05T16:24:20.810Z,35.96
2023-05-05T16:27:09.273Z,36.13
2023-05-05T16:29:46.576Z,36.78
2023-05-05T16:32:20.831Z,36.01
2023-05-05T16:34:50.275Z,36.38
2023-05-05T16:37:19.967Z,36.80
2023-05-05T16:40:01.680Z,36.88
2023-05-05T16:42:32.705Z,37.32
2023-05-05T16:45:09.574Z,37.38
2023-05-05T16:47:39.218Z,36.64
2023-05-05T16:50:14.186Z,36.96
2023-05-05T16:52:43.593Z,36.75
2023-05-05T16:55:12.801Z,37.67
2023-05-05T16:57:42.336Z,37.93
2023-05-05T17:00:15.167Z,38.72
2023-05-05T17:02:44.790Z,38.89
2023-05-05T17:05:17.193Z,39.23
2023-05-05T17:07:52.888Z,39.99
2023-05-05T17:10:27.279Z,41.17
2023-05-05T17:12:57.207Z,40.94
2023-05-05T17:15:28.534Z,40.85
2023-05-05T17:18:03.362Z,40.74
2023-05-05T17:20:35.036Z,41.22
2023-05-05T17:23:04.719Z,41.80
2023-05-05T17:25:46.958Z,41.93
2023-05-05T17:28:17.303Z,42.01
2023-05-05T17:30:48.759Z,42.63
2023-05-05T17:33:21.077Z,42.27
2023-05-05T17:35:50.498Z,42.61
2023-05-05T17:38:19.787Z,42.75
2023-05-05T17:40:49.781Z,42.45
2023-05-05T17:43:19.103Z,42.81
2023-05-05T17:45:50.536Z,43.92
2023-05-05T17:48:20.141Z,44.08
2023-05-05T17:51:09.354Z,44.05
2023-05-05T17:53:39.119Z,43.74
2023-05-05T17:56:09.207Z,43.22
2023-05-05T17:58:38.875Z,43.86
2023-05-05T18:01:13.175Z,43.89
2023-05-05T18:03:42.680Z,44.34
2023-05-05T18:06:11.947Z,44.90
2023-05-05T18:08:41.229Z,44.72
2023-05-05T18:11:10.478Z,45.04
2023-05-05T18:13:39.872Z,44.38
2023-05-05T18:16:11.481Z,44.31
2023-05-05T18:18:41.365Z,44.51
2023-05-05T18:21:11.850Z,43.75
2023-05-05T18:23:41.227Z,44.04
2023-05-05T18:26:10.681Z,44.38
2023-05-05T18:28:40.180Z,44.55
2023-05-05T18:31:11.450Z,44.53
2023-05-05T18:33:41.046Z,44.57
2023-05-05T18:36:15.740Z,44.54
2023-05-05T18:38:50.769Z,44.22
2023-05-05T18:41:20.198Z,44.22
2023-05-05T18:43:56.475Z,44.42
2023-05-05T18:46:27.902Z,44.17
2023-05-05T18:48:57.291Z,44.69
2023-05-05T18:51:27.588Z,43.87
2023-05-05T18:53:57.116Z,43.38
2023-05-05T18:56:26.908Z,43.31
2023-05-05T18:58:56.439Z,42.98
2023-05-05T19:01:32.812Z,43.01
2023-05-05T19:04:02.232Z,43.52
2023-05-05T19:06:32.100Z,43.47
2023-05-05T19:11:37.844Z,43.75
2023-05-05T19:14:07.009Z,43.66
2023-05-05T19:16:38.313Z,43.66
2023-05-05T19:19:07.802Z,43.44
2023-05-05T19:21:37.099Z,43.63
2023-05-05T19:24:10.515Z,43.69
2023-05-05T19:26:40.245Z,43.92
2023-05-05T19:29:09.489Z,43.85
2023-05-05T19:31:40.959Z,43.26
2023-05-05T19:34:15.459Z,43.16
2023-05-05T19:36:44.777Z,43.22
2023-05-05T19:39:15.744Z,43.34
2023-05-05T19:41:45.625Z,42.98
2023-05-05T19:44:15.206Z,43.08
2023-05-05T19:46:51.814Z,43.05
2023-05-05T19:49:21.242Z,43.04
2023-05-05T19:51:51.736Z,43.24
2023-05-05T19:54:21.048Z,43.20
2023-05-05T19:56:50.297Z,43.40
2023-05-05T19:59:20.019Z,42.98
2023-05-05T20:01:56.938Z,43.81
2023-05-05T20:04:26.389Z,43.54
2023-05-05T20:07:01.809Z,44.02
2023-05-05T20:09:31.576Z,44.21
2023-05-05T20:12:01.994Z,44.63
2023-05-05T20:14:32.118Z,45.09
2023-05-05T20:17:03.358Z,45.36
2023-05-05T20:19:37.809Z,45.01
2023-05-05T20:22:07.230Z,45.25
2023-05-05T20:24:36.721Z,45.70
2023-05-05T20:27:12.472Z,46.31
2023-05-05T20:29:47.003Z,46.16
2023-05-05T20:32:25.264Z,46.95
2023-05-05T20:34:54.598Z,46.74
2023-05-05T20:37:26.680Z,46.85
2023-05-05T20:39:57.887Z,47.61
2023-05-05T20:42:34.081Z,47.66
2023-05-05T20:45:03.590Z,47.83
2023-05-05T20:47:38.208Z,47.85
2023-05-05T20:50:09.299Z,47.88
2023-05-05T20:52:43.839Z,48.18
2023-05-05T20:55:13.286Z,47.99
2023-05-05T20:57:42.624Z,47.97
2023-05-05T21:00:12.645Z,48.24
2023-05-05T21:02:44.047Z,48.47
2023-05-05T21:05:18.980Z,48.57
2023-05-05T21:07:48.284Z,48.53
2023-05-05T21:10:17.576Z,48.99
2023-05-05T21:12:46.926Z,48.86
2023-05-05T21:15:16.297Z,49.14
2023-05-05T21:17:53.016Z,49.33
2023-05-05T21:20:22.608Z,49.64
2023-05-05T21:22:52.100Z,49.80
2023-05-05T21:25:27.372Z,49.93
2023-05-05T21:27:56.581Z,50.04
2023-05-05T21:30:26.019Z,50.05
2023-05-05T21:32:57.239Z,49.94
2023-05-05T21:35:26.540Z,50.38
2023-05-05T21:37:55.794Z,50.85
2023-05-05T21:43:00.682Z,50.87
2023-05-05T21:45:29.826Z,51.28
2023-05-05T21:48:06.904Z,51.07
2023-05-05T21:50:36.863Z,51.64
2023-05-05T21:53:06.099Z,51.67
2023-05-05T21:55:35.618Z,51.79
2023-05-05T21:58:04.811Z,51.61
2023-05-05T22:00:34.785Z,51.90
2023-05-05T22:05:41.586Z,52.52
2023-05-05T22:08:11.482Z,52.70
2023-05-05T22:10:41.466Z,53.23
2023-05-05T22:13:15.800Z,53.74
2023-05-05T22:15:47.039Z,53.56
2023-05-05T22:18:18.997Z,54.03
2023-05-05T22:20:48.575Z,54.21
2023-05-05T22:23:17.958Z,54.15
2023-05-05T22:25:47.093Z,53.99
2023-05-05T22:28:16.358Z,54.73
2023-05-05T22:30:46.047Z,55.03
2023-05-05T22:33:15.304Z,55.05
2023-05-05T22:35:46.570Z,55.40
2023-05-05T22:38:20.870Z,55.52
2023-05-05T22:40:55.369Z,55.33
2023-05-05T22:43:24.713Z,55.54
2023-05-05T22:45:54.138Z,55.60
2023-05-05T22:48:23.488Z,56.10
2023-05-05T22:50:54.681Z,56.34
2023-05-05T22:53:24.112Z,56.17
2023-05-05T22:55:58.445Z,56.76
2023-05-05T22:58:38.015Z,56.40
2023-05-05T23:01:07.556Z,56.61
2023-05-05T23:03:37.003Z,56.74
2023-05-05T23:06:08.721Z,57.30
2023-05-05T23:08:38.033Z,57.32
2023-05-05T23:11:07.526Z,57.20
2023-05-05T23:13:42.294Z,57.59
2023-05-05T23:16:11.792Z,57.67
2023-05-05T23:18:41.099Z,58.19
2023-05-05T23:23:48.199Z,58.59
2023-05-05T23:26:21.144Z,58.55
2023-05-05T23:28:50.468Z,58.89
2023-05-05T23:31:19.707Z,59.47
2023-05-05T23:33:49.071Z,59.12
2023-05-05T23:36:27.140Z,60.24
2023-05-05T23:38:56.757Z,59.95
2023-05-05T23:41:25.980Z,60.52
2023-05-05T23:43:55.312Z,60.53
2023-05-05T23:46:24.788Z,60.54
2023-05-05T23:48:54.813Z,60.96
2023-05-05T23:51:26.936Z,61.20
2023-05-05T23:53:58.748Z,61.34
2023-05-05T23:56:28.099Z,61.40
2023-05-05T23:58:58.454Z,61.26
